createdAt,value
2018-07-24T00:01:41.555Z,22.47
2018-07-24T00:04:48.947Z,22.42
2018-07-24T00:07:58.756Z,22.57
2018-07-24T00:11:11.636Z,22.70
2018-07-24T00:14:23.166Z,22.51
2018-07-24T00:17:29.633Z,22.36
2018-07-24T00:20:36.424Z,22.31
2018-07-24T00:23:52.374Z,22.22
2018-07-24T00:26:58.713Z,22.21
2018-07-24T00:30:09.532Z,22.22
2018-07-24T00:33:17.202Z,22.17
2018-07-24T00:36:23.585Z,22.17
2018-07-24T00:39:35.869Z,22.18
2018-07-24T00:42:40.152Z,22.05
2018-07-24T00:45:50.641Z,22.13
2018-07-24T00:48:56.577Z,21.96
2018-07-24T00:52:01.536Z,21.90
2018-07-24T00:59:20.328Z,21.74
2018-07-24T01:02:35.633Z,21.58
2018-07-24T01:05:40.507Z,21.55
2018-07-24T01:08:45.403Z,21.75
2018-07-24T01:11:50.230Z,21.86
2018-07-24T01:14:56.790Z,21.70
2018-07-24T01:18:02.584Z,21.72
2018-07-24T01:21:10.179Z,21.74
2018-07-24T01:24:17.696Z,21.63
2018-07-24T01:27:27.859Z,21.56
2018-07-24T01:30:33.766Z,21.57
2018-07-24T01:33:38.082Z,21.50
2018-07-24T01:36:42.477Z,21.43
2018-07-24T01:39:46.777Z,21.49
2018-07-24T01:42:51.517Z,21.46
2018-07-24T01:45:55.680Z,21.41
2018-07-24T01:49:00.492Z,21.32
2018-07-24T01:52:06.251Z,21.31
2018-07-24T01:55:11.921Z,21.38
2018-07-24T01:58:19.402Z,21.30
2018-07-24T02:01:25.079Z,21.46
2018-07-24T02:04:34.366Z,21.41
2018-07-24T02:07:48.366Z,21.44
2018-07-24T02:10:57.561Z,21.39
2018-07-24T02:14:01.643Z,21.35
2018-07-24T02:17:07.676Z,21.34
2018-07-24T02:20:15.469Z,21.38
2018-07-24T02:23:20.848Z,21.52
2018-07-24T02:26:28.776Z,21.30
2018-07-24T02:29:37.180Z,21.24
2018-07-24T02:32:42.837Z,21.21
2018-07-24T02:35:48.537Z,21.09
2018-07-24T02:38:52.659Z,21.12
2018-07-24T02:41:58.681Z,21.15
2018-07-24T02:45:03.016Z,21.08
2018-07-24T02:48:07.960Z,21.07
2018-07-24T02:51:14.609Z,21.04
2018-07-24T02:54:23.150Z,21.12
2018-07-24T02:57:27.077Z,20.94
2018-07-24T03:00:34.358Z,20.83
2018-07-24T03:03:39.180Z,21.01
2018-07-24T03:06:45.240Z,21.00
2018-07-24T03:09:53.137Z,20.88
2018-07-24T03:13:00.017Z,21.13
2018-07-24T03:16:04.611Z,20.98
2018-07-24T03:19:08.362Z,20.77
2018-07-24T03:22:13.199Z,20.88
2018-07-24T03:25:19.038Z,20.85
2018-07-24T03:28:24.381Z,20.78
2018-07-24T03:31:29.030Z,20.89
2018-07-24T03:34:33.799Z,20.87
2018-07-24T03:37:40.214Z,20.98
2018-07-24T03:43:56.252Z,20.86
2018-07-24T03:47:02.254Z,20.83
2018-07-24T03:50:10.913Z,20.67
2018-07-24T03:53:18.833Z,20.97
2018-07-24T03:56:26.114Z,20.85
2018-07-24T04:02:49.233Z,20.75
2018-07-24T04:05:56.707Z,20.95
2018-07-24T04:09:02.307Z,21.06
2018-07-24T04:12:12.938Z,21.13
2018-07-24T04:15:20.525Z,21.03
2018-07-24T04:18:24.451Z,20.92
2018-07-24T04:21:28.141Z,20.91
2018-07-24T04:24:31.744Z,20.96
2018-07-24T04:27:37.816Z,20.94
2018-07-24T04:30:41.586Z,20.96
2018-07-24T04:33:46.063Z,20.94
2018-07-24T04:36:52.815Z,21.00
2018-07-24T04:39:56.780Z,21.07
2018-07-24T04:43:01.068Z,20.92
2018-07-24T04:46:07.800Z,20.88
2018-07-24T04:49:15.129Z,20.86
2018-07-24T04:52:19.857Z,20.92
2018-07-24T04:55:25.528Z,20.88
2018-07-24T04:58:35.899Z,21.04
2018-07-24T05:01:42.255Z,20.98
2018-07-24T05:04:48.212Z,21.02
2018-07-24T05:07:55.737Z,21.05
2018-07-24T05:11:01.874Z,21.03
2018-07-24T05:14:07.008Z,21.09
2018-07-24T05:17:13.273Z,21.09
2018-07-24T05:20:19.461Z,21.12
2018-07-24T05:23:24.851Z,21.21
2018-07-24T05:26:28.815Z,21.34
2018-07-24T05:29:32.507Z,21.36
2018-07-24T05:32:36.224Z,21.38
2018-07-24T05:35:40.034Z,21.41
2018-07-24T05:38:43.704Z,21.53
2018-07-24T05:41:48.597Z,21.55
2018-07-24T05:44:52.374Z,21.66
2018-07-24T05:47:56.452Z,21.76
2018-07-24T05:51:00.330Z,21.76
2018-07-24T05:54:06.933Z,21.84
2018-07-24T05:57:10.815Z,21.99
2018-07-24T06:00:18.318Z,22.11
2018-07-24T06:06:38.069Z,22.12
2018-07-24T06:20:37.142Z,22.32
2018-07-24T06:31:04.134Z,22.54
2018-07-24T06:34:09.044Z,22.61
2018-07-24T06:37:17.942Z,22.68
2018-07-24T06:40:38.937Z,22.73
2018-07-24T06:43:50.763Z,22.79
2018-07-24T06:46:56.346Z,22.88
2018-07-24T06:50:01.621Z,22.93
2018-07-24T06:53:09.108Z,22.99
2018-07-24T06:56:15.126Z,23.17
2018-07-24T06:59:20.679Z,23.45
2018-07-24T07:02:27.335Z,23.68
2018-07-24T07:05:30.904Z,23.95
2018-07-24T07:08:34.630Z,24.14
2018-07-24T07:11:38.269Z,24.36
2018-07-24T07:14:41.849Z,24.50
2018-07-24T07:17:46.974Z,24.55
2018-07-24T07:21:10.396Z,24.55
2018-07-24T07:24:14.087Z,24.63
2018-07-24T07:27:18.565Z,24.49
2018-07-24T07:30:22.076Z,24.70
2018-07-24T07:33:25.682Z,24.84
2018-07-24T07:36:29.384Z,24.76
2018-07-24T07:39:33.007Z,24.87
2018-07-24T07:42:36.912Z,24.98
2018-07-24T07:45:41.395Z,25.00
2018-07-24T07:52:15.792Z,25.17
2018-07-24T07:55:20.164Z,25.29
2018-07-24T07:58:23.767Z,25.38
2018-07-24T08:01:27.579Z,25.52
2018-07-24T08:04:31.181Z,25.61
2018-07-24T08:07:35.939Z,25.63
2018-07-24T08:10:39.450Z,25.75
2018-07-24T08:13:43.170Z,25.98
2018-07-24T08:16:49.151Z,25.96
2018-07-24T08:19:52.831Z,26.09
2018-07-24T08:22:58.020Z,26.19
2018-07-24T08:26:03.388Z,26.44
2018-07-24T08:29:08.246Z,26.70
2018-07-24T08:32:12.813Z,26.61
2018-07-24T08:35:16.885Z,26.69
2018-07-24T08:38:20.987Z,26.74
2018-07-24T08:41:25.614Z,26.69
2018-07-24T08:44:29.555Z,26.86
2018-07-24T08:47:34.441Z,26.94
2018-07-24T08:50:37.995Z,26.92
2018-07-24T08:53:42.893Z,26.72
2018-07-24T08:56:46.050Z,26.78
2018-07-24T08:59:49.649Z,27.11
2018-07-24T09:02:53.280Z,27.46
2018-07-24T09:05:56.962Z,27.41
2018-07-24T09:09:00.697Z,27.60
2018-07-24T09:12:04.376Z,27.81
2018-07-24T09:15:08.051Z,27.83
2018-07-24T09:18:11.763Z,27.76
2018-07-24T09:21:17.082Z,27.76
2018-07-24T09:24:20.814Z,27.51
2018-07-24T09:27:25.897Z,27.14
2018-07-24T09:30:29.743Z,27.09
2018-07-24T09:33:33.346Z,27.48
2018-07-24T09:36:36.941Z,27.95
2018-07-24T09:39:40.607Z,28.18
2018-07-24T09:42:44.314Z,28.25
2018-07-24T09:45:47.946Z,28.13
2018-07-24T09:48:52.226Z,28.04
2018-07-24T09:51:56.664Z,28.29
2018-07-24T09:55:02.562Z,28.46
2018-07-24T09:58:06.300Z,28.20
2018-07-24T10:01:41.009Z,28.36
2018-07-24T10:04:44.704Z,28.59
2018-07-24T10:07:48.285Z,28.72
2018-07-24T10:10:52.216Z,28.81
2018-07-24T10:13:56.128Z,28.87
2018-07-24T10:16:59.751Z,28.62
2018-07-24T10:20:03.437Z,28.54
2018-07-24T10:23:07.197Z,28.45
2018-07-24T10:26:11.775Z,28.61
2018-07-24T10:29:23.127Z,29.19
2018-07-24T10:32:26.831Z,29.49
2018-07-24T10:35:30.571Z,29.76
2018-07-24T10:38:34.549Z,30.10
2018-07-24T10:41:38.358Z,30.27
2018-07-24T10:44:41.984Z,30.35
2018-07-24T10:47:46.795Z,30.20
2018-07-24T10:50:50.513Z,30.31
2018-07-24T10:53:54.315Z,30.13
2018-07-24T10:56:58.051Z,29.80
2018-07-24T11:00:01.728Z,29.81
2018-07-24T11:03:05.768Z,29.61
2018-07-24T11:06:09.552Z,29.31
2018-07-24T11:09:13.224Z,29.42
2018-07-24T11:12:16.858Z,29.16
2018-07-24T11:15:20.565Z,29.50
2018-07-24T11:18:25.240Z,30.07
2018-07-24T11:21:29.890Z,30.50
2018-07-24T11:24:35.176Z,30.50
2018-07-24T11:27:39.091Z,30.43
2018-07-24T11:30:42.968Z,30.26
2018-07-24T11:33:46.572Z,29.94
2018-07-24T11:36:50.103Z,30.06
2018-07-24T11:39:54.624Z,29.95
2018-07-24T11:42:58.192Z,29.63
2018-07-24T11:46:02.765Z,29.62
2018-07-24T11:49:06.292Z,29.72
2018-07-24T11:52:09.851Z,29.68
2018-07-24T11:55:14.065Z,29.32
2018-07-24T11:58:20.910Z,29.25
2018-07-24T12:01:24.806Z,29.48
2018-07-24T12:04:28.464Z,29.54
2018-07-24T12:07:31.956Z,29.62
2018-07-24T12:10:35.441Z,29.79
2018-07-24T12:13:39.208Z,29.99
2018-07-24T12:16:43.737Z,30.04
2018-07-24T12:19:47.711Z,30.26
2018-07-24T12:22:52.288Z,30.30
2018-07-24T12:32:58.301Z,31.20
2018-07-24T12:36:02.197Z,31.38
2018-07-24T12:39:08.666Z,31.54
2018-07-24T12:42:13.224Z,31.50
2018-07-24T12:45:17.509Z,31.19
2018-07-24T12:48:21.222Z,31.13
2018-07-24T12:51:24.960Z,31.35
2018-07-24T12:54:29.277Z,31.14
2018-07-24T12:57:33.977Z,30.87
2018-07-24T13:00:38.776Z,31.03
2018-07-24T13:03:42.412Z,30.87
2018-07-24T13:06:48.189Z,31.40
2018-07-24T13:09:52.596Z,31.24
2018-07-24T13:12:56.824Z,31.22
2018-07-24T13:16:01.323Z,31.67
2018-07-24T13:19:05.664Z,31.56
2018-07-24T13:22:09.325Z,31.66
2018-07-24T13:25:13.016Z,32.29
2018-07-24T13:28:16.631Z,32.23
2018-07-24T13:31:21.392Z,32.21
2018-07-24T13:34:25.612Z,32.14
2018-07-24T13:37:29.764Z,32.28
2018-07-24T13:40:33.435Z,32.47
2018-07-24T13:43:37.810Z,32.36
2018-07-24T13:46:41.769Z,32.49
2018-07-24T13:49:46.563Z,32.26
2018-07-24T13:52:51.102Z,31.99
2018-07-24T13:55:54.868Z,31.87
2018-07-24T13:58:58.882Z,31.53
2018-07-24T14:02:07.291Z,31.57
2018-07-24T14:05:12.249Z,31.53
2018-07-24T14:08:15.833Z,31.40
2018-07-24T14:11:20.439Z,31.36
2018-07-24T14:14:24.037Z,31.50
2018-07-24T14:17:29.105Z,31.29
2018-07-24T14:20:33.168Z,31.22
2018-07-24T14:23:37.113Z,31.19
2018-07-24T14:26:42.354Z,31.04
2018-07-24T14:29:47.062Z,30.78
2018-07-24T14:32:54.516Z,30.36
2018-07-24T14:35:58.645Z,30.46
2018-07-24T14:39:02.807Z,30.42
2018-07-24T14:42:07.168Z,30.76
2018-07-24T14:45:11.944Z,30.80
2018-07-24T14:48:16.395Z,30.90
2018-07-24T14:51:20.818Z,31.04
2018-07-24T14:54:24.447Z,31.12
2018-07-24T14:57:30.044Z,31.11
2018-07-24T15:00:34.385Z,31.11
2018-07-24T15:03:39.151Z,31.04
2018-07-24T15:06:43.497Z,30.99
2018-07-24T15:09:47.288Z,30.94
2018-07-24T15:12:52.472Z,30.93
2018-07-24T15:15:58.015Z,30.84
2018-07-24T15:19:02.640Z,30.82
2018-07-24T15:22:07.453Z,30.89
2018-07-24T15:25:13.812Z,30.82
2018-07-24T15:28:18.295Z,31.05
2018-07-24T15:31:24.563Z,31.00
2018-07-24T15:34:30.827Z,30.91
2018-07-24T15:41:02.576Z,31.12
2018-07-24T15:44:07.285Z,30.80
2018-07-24T15:47:13.655Z,31.08
2018-07-24T15:50:20.436Z,31.08
2018-07-24T15:53:25.676Z,31.07
2018-07-24T15:56:33.054Z,31.06
2018-07-24T15:59:36.760Z,30.92
2018-07-24T16:02:41.505Z,30.89
2018-07-24T16:05:46.055Z,30.91
2018-07-24T16:08:51.627Z,30.89
2018-07-24T16:11:55.937Z,30.79
2018-07-24T16:14:59.841Z,30.67
2018-07-24T16:18:03.690Z,30.69
2018-07-24T16:21:08.421Z,30.53
2018-07-24T16:24:12.073Z,30.72
2018-07-24T16:27:16.512Z,30.59
2018-07-24T16:30:21.252Z,30.63
2018-07-24T16:33:25.860Z,30.61
2018-07-24T16:36:30.636Z,30.53
2018-07-24T16:39:34.341Z,30.61
2018-07-24T16:42:38.144Z,30.51
2018-07-24T16:45:41.914Z,30.49
2018-07-24T16:48:46.513Z,30.42
2018-07-24T16:51:51.144Z,30.54
2018-07-24T16:54:54.883Z,30.63
2018-07-24T16:58:00.313Z,30.55
2018-07-24T17:01:05.299Z,30.43
2018-07-24T17:04:11.584Z,30.31
2018-07-24T17:07:15.481Z,30.17
2018-07-24T17:10:19.262Z,30.10
2018-07-24T17:13:23.618Z,30.10
2018-07-24T17:16:30.041Z,29.98
2018-07-24T17:19:38.417Z,29.95
2018-07-24T17:22:42.883Z,29.84
2018-07-24T17:25:49.152Z,29.81
2018-07-24T17:28:54.352Z,29.56
2018-07-24T17:31:59.949Z,29.57
2018-07-24T17:35:03.760Z,29.37
2018-07-24T17:38:09.517Z,29.39
2018-07-24T17:41:13.909Z,29.21
2018-07-24T17:44:17.392Z,29.00
2018-07-24T17:47:20.833Z,28.88
2018-07-24T17:50:24.475Z,28.72
2018-07-24T17:53:28.251Z,28.58
2018-07-24T17:56:31.728Z,28.54
2018-07-24T17:59:35.330Z,28.48
2018-07-24T18:02:39.590Z,28.33
2018-07-24T18:05:44.100Z,28.20
2018-07-24T18:08:47.563Z,28.17
2018-07-24T18:11:51.116Z,28.08
2018-07-24T18:14:55.245Z,28.00
2018-07-24T18:17:58.930Z,28.02
2018-07-24T18:21:02.546Z,27.96
2018-07-24T18:24:06.657Z,27.89
2018-07-24T18:27:10.644Z,27.79
2018-07-24T18:30:14.465Z,27.78
2018-07-24T18:33:19.102Z,27.75
2018-07-24T18:36:25.892Z,27.70
2018-07-24T18:39:32.323Z,27.58
2018-07-24T18:42:43.522Z,27.59
2018-07-24T18:45:48.711Z,27.56
2018-07-24T18:48:57.753Z,27.48
2018-07-24T18:52:14.641Z,27.42
2018-07-24T18:55:25.849Z,27.32
2018-07-24T18:58:33.209Z,27.27
2018-07-24T19:01:37.877Z,27.21
2018-07-24T19:04:50.479Z,27.16
2018-07-24T19:08:05.187Z,27.09
2018-07-24T19:11:21.017Z,27.07
2018-07-24T19:14:27.867Z,27.00
2018-07-24T19:28:27.670Z,27.01
2018-07-24T20:01:55.685Z,26.81
2018-07-24T20:05:07.189Z,26.83
2018-07-24T20:08:24.618Z,26.84
2018-07-24T20:11:36.086Z,26.77
2018-07-24T20:14:57.605Z,26.77
2018-07-24T20:18:03.025Z,26.66
2018-07-24T20:21:18.406Z,26.67
2018-07-24T20:24:24.106Z,26.54
2018-07-24T20:49:43.431Z,26.41
2018-07-24T20:52:48.983Z,26.39
2018-07-24T20:55:55.192Z,26.34
2018-07-24T20:59:05.386Z,26.22
2018-07-24T21:02:27.558Z,26.27
2018-07-24T21:05:52.218Z,26.19
2018-07-24T21:08:57.370Z,26.18
2018-07-24T21:12:07.695Z,26.15
2018-07-24T21:22:38.506Z,26.09
2018-07-24T21:26:15.477Z,25.87
2018-07-24T21:29:20.926Z,25.85
2018-07-24T21:32:26.429Z,25.95
2018-07-24T21:35:31.906Z,25.89
2018-07-24T21:38:35.804Z,25.80
2018-07-24T21:41:41.798Z,25.86
2018-07-24T21:44:46.234Z,25.84
2018-07-24T21:47:53.539Z,25.80
2018-07-24T21:51:15.195Z,25.69
2018-07-24T21:54:19.375Z,25.63
2018-07-24T21:57:25.903Z,25.55
2018-07-24T22:00:34.494Z,25.64
2018-07-24T22:03:40.279Z,25.58
2018-07-24T22:06:44.932Z,25.59
2018-07-24T22:09:49.811Z,25.45
2018-07-24T22:12:54.692Z,25.46
2018-07-24T22:15:58.937Z,25.51
2018-07-24T22:19:06.442Z,25.37
2018-07-24T22:22:10.257Z,25.34
2018-07-24T22:25:18.994Z,25.18
2018-07-24T22:28:22.618Z,25.22
2018-07-24T22:31:26.302Z,25.27
2018-07-24T22:34:30.310Z,25.24
2018-07-24T22:37:33.952Z,25.25
2018-07-24T22:40:37.468Z,25.24
2018-07-24T22:43:43.634Z,25.17
2018-07-24T22:46:48.397Z,25.10
2018-07-24T22:49:53.381Z,25.04
2018-07-24T22:52:57.093Z,25.04
2018-07-24T22:56:00.746Z,25.08
2018-07-24T22:59:05.062Z,25.07
2018-07-24T23:02:08.700Z,24.93
2018-07-24T23:05:13.094Z,24.85
2018-07-24T23:08:16.933Z,24.86
2018-07-24T23:11:20.605Z,24.84
2018-07-24T23:14:24.127Z,24.83
2018-07-24T23:17:27.876Z,24.72
2018-07-24T23:20:31.543Z,24.60
2018-07-24T23:23:35.821Z,24.55
2018-07-24T23:26:39.420Z,24.53
2018-07-24T23:29:44.034Z,24.47
2018-07-24T23:32:47.697Z,24.41
2018-07-24T23:35:51.795Z,24.36
2018-07-24T23:38:55.878Z,24.30
2018-07-24T23:42:00.265Z,24.31
2018-07-24T23:45:03.964Z,24.17
2018-07-24T23:48:07.598Z,24.22
2018-07-24T23:51:12.216Z,24.17
2018-07-24T23:54:15.776Z,24.12
2018-07-24T23:57:20.421Z,24.09
